Edgewood, Kentucky
Current Conditions -  °F | °C
As of 5:52 AM on Saturday 25 Oct 2014 (Local Time) from KCVG Reporting Station
Broken Clouds Broken Clouds  
Wind Chill: 46°   Ceiling: 25000
Heat Index: 48°   Visibility: 8mi
Dew Point: 43°   Wind: 5mph
Humidity: 83%   Direction: 200°SSW
Pressure: 30"   Gusts: NA
Location:  39.017°N, 84.607°W
Report Text: KCVG 250952Z 20004KT 8SM BKN250 09/06 A3000 RMK AO2 SLP155 T00890061
Loading
Personal Weather Stations






























Interactive Weather Map
Tropical Storm Tracking
New forecast layout! Learn more

10-Day Weather Forecast

Advertisements
Track Severe Weather on mobile